sensor_id;sensor_type;location;lat;lon;timestamp;temperature;humidity
33594;DHT22;19920;52.242;20.940;2023-10-08T00:00:52;10.80;99.90
33594;DHT22;19920;52.242;20.940;2023-10-08T00:03:21;10.80;99.90
33594;DHT22;19920;52.242;20.940;2023-10-08T00:05:47;10.80;99.90
33594;DHT22;19920;52.242;20.940;2023-10-08T00:08:14;10.80;99.90
33594;DHT22;19920;52.242;20.940;2023-10-08T00:10:42;10.80;99.90
33594;DHT22;19920;52.242;20.940;2023-10-08T00:13:10;10.80;99.90
33594;DHT22;19920;52.242;20.940;2023-10-08T00:15:36;10.70;99.90
33594;DHT22;19920;52.242;20.940;2023-10-08T00:18:05;10.80;99.90
33594;DHT22;19920;52.242;20.940;2023-10-08T00:20:36;10.80;99.90
33594;DHT22;19920;52.242;20.940;2023-10-08T00:23:12;10.80;99.90
33594;DHT22;19920;52.242;20.940;2023-10-08T00:25:38;10.70;99.90
33594;DHT22;19920;52.242;20.940;2023-10-08T00:28:07;10.80;99.90
33594;DHT22;19920;52.242;20.940;2023-10-08T00:30:38;10.70;99.90
33594;DHT22;19920;52.242;20.940;2023-10-08T00:33:04;10.80;99.90
33594;DHT22;19920;52.242;20.940;2023-10-08T00:35:30;10.70;99.90
33594;DHT22;19920;52.242;20.940;2023-10-08T00:37:55;10.70;99.90
33594;DHT22;19920;52.242;20.940;2023-10-08T00:40:35;10.70;99.90
33594;DHT22;19920;52.242;20.940;2023-10-08T00:43:02;10.70;99.90
33594;DHT22;19920;52.242;20.940;2023-10-08T00:45:38;10.70;99.90
33594;DHT22;19920;52.242;20.940;2023-10-08T00:48:12;10.70;99.90
33594;DHT22;19920;52.242;20.940;2023-10-08T00:50:47;10.70;99.90
33594;DHT22;19920;52.242;20.940;2023-10-08T00:53:13;10.70;99.90
33594;DHT22;19920;52.242;20.940;2023-10-08T00:55:49;10.70;99.90
33594;DHT22;19920;52.242;20.940;2023-10-08T00:58:30;10.70;99.90
33594;DHT22;19920;52.242;20.940;2023-10-08T01:00:59;10.70;99.90
33594;DHT22;19920;52.242;20.940;2023-10-08T01:03:28;10.70;99.90
33594;DHT22;19920;52.242;20.940;2023-10-08T01:05:55;10.70;99.90
33594;DHT22;19920;52.242;20.940;2023-10-08T01:08:22;10.70;99.90
33594;DHT22;19920;52.242;20.940;2023-10-08T01:11:20;10.60;99.90
33594;DHT22;19920;52.242;20.940;2023-10-08T01:14:18;10.60;99.90
33594;DHT22;19920;52.242;20.940;2023-10-08T01:16:47;10.60;99.90
33594;DHT22;19920;52.242;20.940;2023-10-08T01:19:18;10.70;99.90
33594;DHT22;19920;52.242;20.940;2023-10-08T01:21:45;10.70;99.90
33594;DHT22;19920;52.242;20.940;2023-10-08T01:24:11;10.70;99.90
33594;DHT22;19920;52.242;20.940;2023-10-08T01:26:42;10.70;99.90
33594;DHT22;19920;52.242;20.940;2023-10-08T01:29:11;10.70;99.90
33594;DHT22;19920;52.242;20.940;2023-10-08T01:31:45;10.70;99.90
33594;DHT22;19920;52.242;20.940;2023-10-08T01:34:11;10.60;99.90
33594;DHT22;19920;52.242;20.940;2023-10-08T01:36:42;10.60;99.90
33594;DHT22;19920;52.242;20.940;2023-10-08T01:39:10;10.70;99.90
33594;DHT22;19920;52.242;20.940;2023-10-08T01:41:42;10.60;99.90
33594;DHT22;19920;52.242;20.940;2023-10-08T01:44:08;10.60;99.90
33594;DHT22;19920;52.242;20.940;2023-10-08T01:46:34;10.70;99.90
33594;DHT22;19920;52.242;20.940;2023-10-08T01:49:00;10.70;99.90
33594;DHT22;19920;52.242;20.940;2023-10-08T01:51:30;10.70;99.90
33594;DHT22;19920;52.242;20.940;2023-10-08T01:54:12;10.70;99.90
33594;DHT22;19920;52.242;20.940;2023-10-08T01:56:40;10.80;99.90
33594;DHT22;19920;52.242;20.940;2023-10-08T01:59:07;10.70;99.90
33594;DHT22;19920;52.242;20.940;2023-10-08T02:01:34;10.70;99.90
33594;DHT22;19920;52.242;20.940;2023-10-08T02:04:00;10.70;99.90
33594;DHT22;19920;52.242;20.940;2023-10-08T02:06:27;10.70;99.90
33594;DHT22;19920;52.242;20.940;2023-10-08T02:08:52;10.70;99.90
33594;DHT22;19920;52.242;20.940;2023-10-08T02:11:18;10.70;99.90
33594;DHT22;19920;52.242;20.940;2023-10-08T02:13:45;10.60;99.90
33594;DHT22;19920;52.242;20.940;2023-10-08T02:16:18;10.60;99.90
33594;DHT22;19920;52.242;20.940;2023-10-08T02:18:44;10.60;99.90
33594;DHT22;19920;52.242;20.940;2023-10-08T02:21:09;10.60;99.90
33594;DHT22;19920;52.242;20.940;2023-10-08T02:23:36;10.60;99.90
33594;DHT22;19920;52.242;20.940;2023-10-08T02:26:02;10.50;99.90
33594;DHT22;19920;52.242;20.940;2023-10-08T02:28:28;10.50;99.90
33594;DHT22;19920;52.242;20.940;2023-10-08T02:30:54;10.50;99.90
33594;DHT22;19920;52.242;20.940;2023-10-08T02:33:19;10.50;99.90
33594;DHT22;19920;52.242;20.940;2023-10-08T02:35:46;10.50;99.90
33594;DHT22;19920;52.242;20.940;2023-10-08T02:38:13;10.50;99.90
33594;DHT22;19920;52.242;20.940;2023-10-08T02:40:41;10.50;99.90
33594;DHT22;19920;52.242;20.940;2023-10-08T02:43:12;10.50;99.90
33594;DHT22;19920;52.242;20.940;2023-10-08T02:45:41;10.50;99.90
33594;DHT22;19920;52.242;20.940;2023-10-08T02:48:10;10.50;99.90
33594;DHT22;19920;52.242;20.940;2023-10-08T02:50:41;10.40;99.90
33594;DHT22;19920;52.242;20.940;2023-10-08T02:53:07;10.40;99.90
33594;DHT22;19920;52.242;20.940;2023-10-08T02:55:39;10.40;99.90
33594;DHT22;19920;52.242;20.940;2023-10-08T02:58:10;10.40;99.90
33594;DHT22;19920;52.242;20.940;2023-10-08T03:00:46;10.40;99.90
33594;DHT22;19920;52.242;20.940;2023-10-08T03:03:17;10.40;99.90
33594;DHT22;19920;52.242;20.940;2023-10-08T03:05:51;10.40;99.90
33594;DHT22;19920;52.242;20.940;2023-10-08T03:08:18;10.40;99.90
33594;DHT22;19920;52.242;20.940;2023-10-08T03:10:46;10.40;99.90
33594;DHT22;19920;52.242;20.940;2023-10-08T03:13:16;10.40;99.90
33594;DHT22;19920;52.242;20.940;2023-10-08T03:15:43;10.30;99.90
33594;DHT22;19920;52.242;20.940;2023-10-08T03:18:24;10.30;99.90
33594;DHT22;19920;52.242;20.940;2023-10-08T03:20:50;10.30;99.90
33594;DHT22;19920;52.242;20.940;2023-10-08T03:23:16;10.30;99.90
33594;DHT22;19920;52.242;20.940;2023-10-08T03:26:00;10.30;99.90
33594;DHT22;19920;52.242;20.940;2023-10-08T03:28:36;10.20;99.90
33594;DHT22;19920;52.242;20.940;2023-10-08T03:31:03;10.20;99.90
33594;DHT22;19920;52.242;20.940;2023-10-08T03:33:35;10.20;99.90
33594;DHT22;19920;52.242;20.940;2023-10-08T03:36:06;10.20;99.90
33594;DHT22;19920;52.242;20.940;2023-10-08T03:38:55;10.20;99.90
33594;DHT22;19920;52.242;20.940;2023-10-08T03:41:23;10.20;99.90
33594;DHT22;19920;52.242;20.940;2023-10-08T03:43:58;10.20;99.90
33594;DHT22;19920;52.242;20.940;2023-10-08T03:46:31;10.20;99.90
33594;DHT22;19920;52.242;20.940;2023-10-08T03:48:57;10.20;99.90
33594;DHT22;19920;52.242;20.940;2023-10-08T03:51:30;10.10;99.90
33594;DHT22;19920;52.242;20.940;2023-10-08T03:53:55;10.10;99.90
33594;DHT22;19920;52.242;20.940;2023-10-08T03:56:32;10.10;99.90
33594;DHT22;19920;52.242;20.940;2023-10-08T03:59:04;10.10;99.90
33594;DHT22;19920;52.242;20.940;2023-10-08T04:01:39;10.00;99.90
33594;DHT22;19920;52.242;20.940;2023-10-08T04:04:06;10.00;99.90
33594;DHT22;19920;52.242;20.940;2023-10-08T04:06:37;10.00;99.90
33594;DHT22;19920;52.242;20.940;2023-10-08T04:09:05;10.00;99.90
33594;DHT22;19920;52.242;20.940;2023-10-08T04:11:33;9.90;99.90
33594;DHT22;19920;52.242;20.940;2023-10-08T04:14:21;9.90;99.90
33594;DHT22;19920;52.242;20.940;2023-10-08T04:16:47;9.90;99.90
33594;DHT22;19920;52.242;20.940;2023-10-08T04:19:18;9.80;99.90
33594;DHT22;19920;52.242;20.940;2023-10-08T04:21:44;9.80;99.90
33594;DHT22;19920;52.242;20.940;2023-10-08T04:24:11;9.80;99.90
33594;DHT22;19920;52.242;20.940;2023-10-08T04:26:40;9.70;99.90
33594;DHT22;19920;52.242;20.940;2023-10-08T04:29:06;9.70;99.90
33594;DHT22;19920;52.242;20.940;2023-10-08T04:31:32;9.70;99.90
33594;DHT22;19920;52.242;20.940;2023-10-08T04:34:05;9.70;99.90
33594;DHT22;19920;52.242;20.940;2023-10-08T04:36:47;9.60;99.90
33594;DHT22;19920;52.242;20.940;2023-10-08T04:39:20;9.50;99.90
33594;DHT22;19920;52.242;20.940;2023-10-08T04:41:57;9.40;99.90
33594;DHT22;19920;52.242;20.940;2023-10-08T04:44:25;9.30;99.90
33594;DHT22;19920;52.242;20.940;2023-10-08T04:46:51;9.30;99.90
33594;DHT22;19920;52.242;20.940;2023-10-08T04:49:19;9.20;99.90
33594;DHT22;19920;52.242;20.940;2023-10-08T04:52:02;9.20;99.90
33594;DHT22;19920;52.242;20.940;2023-10-08T04:54:41;9.10;99.90
33594;DHT22;19920;52.242;20.940;2023-10-08T04:57:07;9.10;99.90
33594;DHT22;19920;52.242;20.940;2023-10-08T04:59:43;9.00;99.90
33594;DHT22;19920;52.242;20.940;2023-10-08T05:02:10;9.00;99.90
33594;DHT22;19920;52.242;20.940;2023-10-08T05:04:49;8.90;99.90
33594;DHT22;19920;52.242;20.940;2023-10-08T05:07:18;8.90;99.90
33594;DHT22;19920;52.242;20.940;2023-10-08T05:10:06;8.90;99.90
33594;DHT22;19920;52.242;20.940;2023-10-08T05:12:32;8.80;99.90
33594;DHT22;19920;52.242;20.940;2023-10-08T05:14:58;8.80;99.90
33594;DHT22;19920;52.242;20.940;2023-10-08T05:17:40;8.80;99.90
33594;DHT22;19920;52.242;20.940;2023-10-08T05:20:18;8.70;99.90
33594;DHT22;19920;52.242;20.940;2023-10-08T05:23:10;8.70;99.90
33594;DHT22;19920;52.242;20.940;2023-10-08T05:25:48;8.70;99.90
33594;DHT22;19920;52.242;20.940;2023-10-08T05:28:24;8.70;99.90
33594;DHT22;19920;52.242;20.940;2023-10-08T05:30:50;8.70;99.90
33594;DHT22;19920;52.242;20.940;2023-10-08T05:33:30;8.70;99.90
33594;DHT22;19920;52.242;20.940;2023-10-08T05:36:16;8.60;99.90
33594;DHT22;19920;52.242;20.940;2023-10-08T05:38:53;8.60;99.90
33594;DHT22;19920;52.242;20.940;2023-10-08T05:41:44;8.70;99.90
33594;DHT22;19920;52.242;20.940;2023-10-08T05:44:29;8.70;99.90
33594;DHT22;19920;52.242;20.940;2023-10-08T05:47:05;8.70;99.90
33594;DHT22;19920;52.242;20.940;2023-10-08T05:49:54;8.70;99.90
33594;DHT22;19920;52.242;20.940;2023-10-08T05:52:40;8.80;99.90
33594;DHT22;19920;52.242;20.940;2023-10-08T05:55:24;8.80;99.90
33594;DHT22;19920;52.242;20.940;2023-10-08T05:58:01;8.80;99.90
33594;DHT22;19920;52.242;20.940;2023-10-08T06:00:48;8.80;99.90
33594;DHT22;19920;52.242;20.940;2023-10-08T06:03:19;8.90;99.90
33594;DHT22;19920;52.242;20.940;2023-10-08T06:06:08;8.80;99.90
33594;DHT22;19920;52.242;20.940;2023-10-08T06:08:37;8.80;99.90
33594;DHT22;19920;52.242;20.940;2023-10-08T06:11:20;8.80;99.90
33594;DHT22;19920;52.242;20.940;2023-10-08T06:14:05;8.90;99.90
33594;DHT22;19920;52.242;20.940;2023-10-08T06:16:54;8.90;99.90
33594;DHT22;19920;52.242;20.940;2023-10-08T06:19:39;8.90;99.90
33594;DHT22;19920;52.242;20.940;2023-10-08T06:22:05;8.90;99.90
33594;DHT22;19920;52.242;20.940;2023-10-08T06:24:30;9.00;99.90
33594;DHT22;19920;52.242;20.940;2023-10-08T06:26:58;9.00;99.90
33594;DHT22;19920;52.242;20.940;2023-10-08T06:29:30;9.00;99.90
33594;DHT22;19920;52.242;20.940;2023-10-08T06:31:57;9.00;99.90
33594;DHT22;19920;52.242;20.940;2023-10-08T06:34:27;8.90;99.90
33594;DHT22;19920;52.242;20.940;2023-10-08T06:36:54;9.00;99.90
33594;DHT22;19920;52.242;20.940;2023-10-08T06:39:21;9.00;99.90
33594;DHT22;19920;52.242;20.940;2023-10-08T06:41:54;9.10;99.90
33594;DHT22;19920;52.242;20.940;2023-10-08T06:44:20;9.10;99.90
33594;DHT22;19920;52.242;20.940;2023-10-08T06:46:45;9.00;99.90
33594;DHT22;19920;52.242;20.940;2023-10-08T06:49:11;9.10;99.90
33594;DHT22;19920;52.242;20.940;2023-10-08T06:51:40;9.10;99.90
33594;DHT22;19920;52.242;20.940;2023-10-08T06:54:09;9.20;99.90
33594;DHT22;19920;52.242;20.940;2023-10-08T06:56:42;9.20;99.90
33594;DHT22;19920;52.242;20.940;2023-10-08T06:59:12;9.30;99.90
33594;DHT22;19920;52.242;20.940;2023-10-08T07:01:38;9.20;99.90
33594;DHT22;19920;52.242;20.940;2023-10-08T07:04:12;9.20;99.90
33594;DHT22;19920;52.242;20.940;2023-10-08T07:06:43;9.30;99.90
33594;DHT22;19920;52.242;20.940;2023-10-08T07:09:11;9.30;99.90
33594;DHT22;19920;52.242;20.940;2023-10-08T07:11:56;9.30;99.90
33594;DHT22;19920;52.242;20.940;2023-10-08T07:14:25;9.30;99.90
33594;DHT22;19920;52.242;20.940;2023-10-08T07:16:59;9.40;99.90
33594;DHT22;19920;52.242;20.940;2023-10-08T07:19:29;9.40;99.90
33594;DHT22;19920;52.242;20.940;2023-10-08T07:22:05;9.40;99.90
33594;DHT22;19920;52.242;20.940;2023-10-08T07:24:43;9.50;99.90
33594;DHT22;19920;52.242;20.940;2023-10-08T07:27:11;9.50;99.90
33594;DHT22;19920;52.242;20.940;2023-10-08T07:29:37;9.50;99.90
33594;DHT22;19920;52.242;20.940;2023-10-08T07:32:02;9.50;99.90
33594;DHT22;19920;52.242;20.940;2023-10-08T07:34:36;9.50;99.90
33594;DHT22;19920;52.242;20.940;2023-10-08T07:37:02;9.50;99.90
33594;DHT22;19920;52.242;20.940;2023-10-08T07:39:28;9.60;99.90
33594;DHT22;19920;52.242;20.940;2023-10-08T07:41:56;9.70;99.90
33594;DHT22;19920;52.242;20.940;2023-10-08T07:44:23;9.70;99.90
33594;DHT22;19920;52.242;20.940;2023-10-08T07:46:50;9.70;99.90
33594;DHT22;19920;52.242;20.940;2023-10-08T07:49:17;9.80;99.90
33594;DHT22;19920;52.242;20.940;2023-10-08T07:51:43;9.80;99.90
33594;DHT22;19920;52.242;20.940;2023-10-08T07:54:17;9.80;99.90
33594;DHT22;19920;52.242;20.940;2023-10-08T07:56:45;9.70;99.90
33594;DHT22;19920;52.242;20.940;2023-10-08T07:59:11;9.80;99.90
33594;DHT22;19920;52.242;20.940;2023-10-08T08:01:40;9.70;99.90
33594;DHT22;19920;52.242;20.940;2023-10-08T08:04:09;9.80;99.90
33594;DHT22;19920;52.242;20.940;2023-10-08T08:06:37;9.80;99.90
33594;DHT22;19920;52.242;20.940;2023-10-08T08:09:02;9.70;99.90
33594;DHT22;19920;52.242;20.940;2023-10-08T08:11:33;9.80;99.90
33594;DHT22;19920;52.242;20.940;2023-10-08T08:14:02;9.80;99.90
33594;DHT22;19920;52.242;20.940;2023-10-08T08:16:33;9.80;99.90
33594;DHT22;19920;52.242;20.940;2023-10-08T08:19:01;10.00;99.90
33594;DHT22;19920;52.242;20.940;2023-10-08T08:21:27;9.90;99.90
33594;DHT22;19920;52.242;20.940;2023-10-08T08:23:56;9.90;99.90
33594;DHT22;19920;52.242;20.940;2023-10-08T08:26:30;10.10;99.90
33594;DHT22;19920;52.242;20.940;2023-10-08T08:29:04;10.10;99.90
33594;DHT22;19920;52.242;20.940;2023-10-08T08:31:30;10.10;99.90
33594;DHT22;19920;52.242;20.940;2023-10-08T08:34:01;10.10;99.90
33594;DHT22;19920;52.242;20.940;2023-10-08T08:36:42;10.10;99.90
33594;DHT22;19920;52.242;20.940;2023-10-08T08:39:12;10.10;99.90
33594;DHT22;19920;52.242;20.940;2023-10-08T08:41:50;10.10;99.90
33594;DHT22;19920;52.242;20.940;2023-10-08T08:44:18;10.00;99.90
33594;DHT22;19920;52.242;20.940;2023-10-08T08:46:45;10.20;99.90
33594;DHT22;19920;52.242;20.940;2023-10-08T08:49:12;10.20;99.90
33594;DHT22;19920;52.242;20.940;2023-10-08T08:51:38;10.20;99.90
33594;DHT22;19920;52.242;20.940;2023-10-08T08:54:05;10.30;99.90
33594;DHT22;19920;52.242;20.940;2023-10-08T08:56:35;10.50;99.90
33594;DHT22;19920;52.242;20.940;2023-10-08T08:59:02;10.60;99.90
33594;DHT22;19920;52.242;20.940;2023-10-08T09:01:30;10.60;99.90
33594;DHT22;19920;52.242;20.940;2023-10-08T09:04:03;10.60;99.90
33594;DHT22;19920;52.242;20.940;2023-10-08T09:06:39;10.50;99.90
33594;DHT22;19920;52.242;20.940;2023-10-08T09:09:05;10.60;99.90
33594;DHT22;19920;52.242;20.940;2023-10-08T09:11:50;10.60;99.90
33594;DHT22;19920;52.242;20.940;2023-10-08T09:14:24;10.60;99.90
33594;DHT22;19920;52.242;20.940;2023-10-08T09:16:52;10.60;99.90
33594;DHT22;19920;52.242;20.940;2023-10-08T09:19:19;10.60;99.90
33594;DHT22;19920;52.242;20.940;2023-10-08T09:24:32;10.70;99.90
33594;DHT22;19920;52.242;20.940;2023-10-08T09:26:59;10.80;99.90
33594;DHT22;19920;52.242;20.940;2023-10-08T09:29:25;10.70;99.90
33594;DHT22;19920;52.242;20.940;2023-10-08T09:31:59;10.80;99.90
33594;DHT22;19920;52.242;20.940;2023-10-08T09:34:29;10.80;99.90
33594;DHT22;19920;52.242;20.940;2023-10-08T09:36:58;10.80;99.90
33594;DHT22;19920;52.242;20.940;2023-10-08T09:39:28;10.80;99.90
33594;DHT22;19920;52.242;20.940;2023-10-08T09:41:57;10.90;99.90
33594;DHT22;19920;52.242;20.940;2023-10-08T09:44:24;11.10;99.90
33594;DHT22;19920;52.242;20.940;2023-10-08T09:47:09;10.90;99.90
33594;DHT22;19920;52.242;20.940;2023-10-08T09:49:45;10.70;99.90
33594;DHT22;19920;52.242;20.940;2023-10-08T09:52:16;10.70;99.90
33594;DHT22;19920;52.242;20.940;2023-10-08T09:54:47;10.90;99.90
33594;DHT22;19920;52.242;20.940;2023-10-08T09:57:15;10.90;99.90
33594;DHT22;19920;52.242;20.940;2023-10-08T09:59:45;10.90;99.90
33594;DHT22;19920;52.242;20.940;2023-10-08T10:02:11;11.10;99.90
33594;DHT22;19920;52.242;20.940;2023-10-08T10:04:44;11.10;99.90
33594;DHT22;19920;52.242;20.940;2023-10-08T10:07:12;11.10;99.90
33594;DHT22;19920;52.242;20.940;2023-10-08T10:09:46;11.20;99.90
33594;DHT22;19920;52.242;20.940;2023-10-08T10:12:24;11.20;99.90
33594;DHT22;19920;52.242;20.940;2023-10-08T10:14:55;11.40;99.90
33594;DHT22;19920;52.242;20.940;2023-10-08T10:17:27;11.40;99.90
33594;DHT22;19920;52.242;20.940;2023-10-08T10:19:57;11.40;99.90
33594;DHT22;19920;52.242;20.940;2023-10-08T10:22:33;11.40;99.90
33594;DHT22;19920;52.242;20.940;2023-10-08T10:25:00;11.50;99.90
33594;DHT22;19920;52.242;20.940;2023-10-08T10:27:30;11.70;99.90
33594;DHT22;19920;52.242;20.940;2023-10-08T10:30:03;11.80;99.90
33594;DHT22;19920;52.242;20.940;2023-10-08T10:32:36;11.80;99.90
33594;DHT22;19920;52.242;20.940;2023-10-08T10:35:03;11.70;99.90
33594;DHT22;19920;52.242;20.940;2023-10-08T10:37:32;11.50;99.90
33594;DHT22;19920;52.242;20.940;2023-10-08T10:40:07;11.60;99.90
33594;DHT22;19920;52.242;20.940;2023-10-08T10:42:38;11.60;99.90
33594;DHT22;19920;52.242;20.940;2023-10-08T10:45:13;11.60;99.90
33594;DHT22;19920;52.242;20.940;2023-10-08T10:47:59;11.60;99.90
33594;DHT22;19920;52.242;20.940;2023-10-08T10:50:40;11.60;99.90
33594;DHT22;19920;52.242;20.940;2023-10-08T10:53:26;11.70;99.90
33594;DHT22;19920;52.242;20.940;2023-10-08T10:55:53;11.70;99.90
33594;DHT22;19920;52.242;20.940;2023-10-08T10:58:26;11.60;99.90
33594;DHT22;19920;52.242;20.940;2023-10-08T11:00:53;11.60;99.90
33594;DHT22;19920;52.242;20.940;2023-10-08T11:03:23;11.80;99.90
33594;DHT22;19920;52.242;20.940;2023-10-08T11:05:55;12.00;99.90
33594;DHT22;19920;52.242;20.940;2023-10-08T11:08:25;12.20;99.90
33594;DHT22;19920;52.242;20.940;2023-10-08T11:10:52;12.20;99.90
33594;DHT22;19920;52.242;20.940;2023-10-08T11:13:19;12.10;99.90
33594;DHT22;19920;52.242;20.940;2023-10-08T11:15:47;12.10;99.90
33594;DHT22;19920;52.242;20.940;2023-10-08T11:18:22;12.30;99.90
33594;DHT22;19920;52.242;20.940;2023-10-08T11:20:49;12.10;99.90
33594;DHT22;19920;52.242;20.940;2023-10-08T11:23:31;12.10;99.90
33594;DHT22;19920;52.242;20.940;2023-10-08T11:26:03;12.30;99.90
33594;DHT22;19920;52.242;20.940;2023-10-08T11:28:35;12.50;99.90
33594;DHT22;19920;52.242;20.940;2023-10-08T11:31:09;12.50;99.90
33594;DHT22;19920;52.242;20.940;2023-10-08T11:33:43;12.50;99.90
33594;DHT22;19920;52.242;20.940;2023-10-08T11:36:20;12.30;99.90
33594;DHT22;19920;52.242;20.940;2023-10-08T11:38:50;12.50;99.90
33594;DHT22;19920;52.242;20.940;2023-10-08T11:41:19;12.50;99.90
33594;DHT22;19920;52.242;20.940;2023-10-08T11:43:52;12.50;99.90
33594;DHT22;19920;52.242;20.940;2023-10-08T11:46:29;12.40;99.90
33594;DHT22;19920;52.242;20.940;2023-10-08T11:48:58;12.30;99.90
33594;DHT22;19920;52.242;20.940;2023-10-08T11:51:32;12.30;99.90
33594;DHT22;19920;52.242;20.940;2023-10-08T11:53:59;12.20;99.90
33594;DHT22;19920;52.242;20.940;2023-10-08T11:56:26;12.30;99.90
33594;DHT22;19920;52.242;20.940;2023-10-08T11:58:52;12.40;99.90
33594;DHT22;19920;52.242;20.940;2023-10-08T12:01:22;12.40;99.90
33594;DHT22;19920;52.242;20.940;2023-10-08T12:03:49;12.40;99.90
33594;DHT22;19920;52.242;20.940;2023-10-08T12:06:16;12.50;99.90
33594;DHT22;19920;52.242;20.940;2023-10-08T12:08:47;12.30;99.90
33594;DHT22;19920;52.242;20.940;2023-10-08T12:11:15;12.30;99.90
33594;DHT22;19920;52.242;20.940;2023-10-08T12:13:41;12.50;99.90
33594;DHT22;19920;52.242;20.940;2023-10-08T12:16:12;12.50;99.90
33594;DHT22;19920;52.242;20.940;2023-10-08T12:18:48;12.60;99.90
33594;DHT22;19920;52.242;20.940;2023-10-08T12:21:15;12.60;99.90
33594;DHT22;19920;52.242;20.940;2023-10-08T12:23:41;12.70;99.90
33594;DHT22;19920;52.242;20.940;2023-10-08T12:26:15;12.70;99.90
33594;DHT22;19920;52.242;20.940;2023-10-08T12:28:47;12.80;99.90
33594;DHT22;19920;52.242;20.940;2023-10-08T12:31:19;12.90;99.90
33594;DHT22;19920;52.242;20.940;2023-10-08T12:33:51;12.80;99.90
33594;DHT22;19920;52.242;20.940;2023-10-08T12:36:22;12.80;99.90
33594;DHT22;19920;52.242;20.940;2023-10-08T12:38:49;12.90;99.90
33594;DHT22;19920;52.242;20.940;2023-10-08T12:41:15;12.80;99.90
33594;DHT22;19920;52.242;20.940;2023-10-08T12:43:45;13.00;99.90
33594;DHT22;19920;52.242;20.940;2023-10-08T12:46:13;13.20;99.90
33594;DHT22;19920;52.242;20.940;2023-10-08T12:48:50;13.40;99.90
33594;DHT22;19920;52.242;20.940;2023-10-08T12:51:20;13.60;99.90
33594;DHT22;19920;52.242;20.940;2023-10-08T12:53:50;13.30;99.90
33594;DHT22;19920;52.242;20.940;2023-10-08T12:56:17;13.20;99.90
33594;DHT22;19920;52.242;20.940;2023-10-08T12:58:47;12.80;99.90
33594;DHT22;19920;52.242;20.940;2023-10-08T13:01:19;12.60;99.90
33594;DHT22;19920;52.242;20.940;2023-10-08T13:03:45;12.60;99.90
33594;DHT22;19920;52.242;20.940;2023-10-08T13:06:16;12.30;99.90
33594;DHT22;19920;52.242;20.940;2023-10-08T13:08:51;12.30;99.90
33594;DHT22;19920;52.242;20.940;2023-10-08T13:11:22;12.50;99.90
33594;DHT22;19920;52.242;20.940;2023-10-08T13:13:54;12.70;99.90
33594;DHT22;19920;52.242;20.940;2023-10-08T13:16:27;12.80;99.90
33594;DHT22;19920;52.242;20.940;2023-10-08T13:18:57;13.00;99.90
33594;DHT22;19920;52.242;20.940;2023-10-08T13:21:26;13.30;99.90
33594;DHT22;19920;52.242;20.940;2023-10-08T13:23:54;13.40;99.90
33594;DHT22;19920;52.242;20.940;2023-10-08T13:26:22;13.30;99.90
33594;DHT22;19920;52.242;20.940;2023-10-08T13:28:50;13.30;99.90
33594;DHT22;19920;52.242;20.940;2023-10-08T13:31:16;13.10;99.90
33594;DHT22;19920;52.242;20.940;2023-10-08T13:33:42;13.10;99.90
33594;DHT22;19920;52.242;20.940;2023-10-08T13:36:10;13.30;99.90
33594;DHT22;19920;52.242;20.940;2023-10-08T13:38:39;13.10;99.90
33594;DHT22;19920;52.242;20.940;2023-10-08T13:41:06;13.20;99.90
33594;DHT22;19920;52.242;20.940;2023-10-08T13:43:44;13.10;99.90
33594;DHT22;19920;52.242;20.940;2023-10-08T13:46:12;13.20;99.90
33594;DHT22;19920;52.242;20.940;2023-10-08T13:48:41;13.20;99.90
33594;DHT22;19920;52.242;20.940;2023-10-08T13:51:08;12.90;99.90
33594;DHT22;19920;52.242;20.940;2023-10-08T13:53:40;12.70;99.90
33594;DHT22;19920;52.242;20.940;2023-10-08T13:56:06;12.60;99.90
33594;DHT22;19920;52.242;20.940;2023-10-08T13:58:32;12.60;99.90
33594;DHT22;19920;52.242;20.940;2023-10-08T14:01:01;12.70;99.90
33594;DHT22;19920;52.242;20.940;2023-10-08T14:03:27;12.80;99.90
33594;DHT22;19920;52.242;20.940;2023-10-08T14:05:57;12.70;99.90
33594;DHT22;19920;52.242;20.940;2023-10-08T14:08:27;12.60;99.90
33594;DHT22;19920;52.242;20.940;2023-10-08T14:10:54;12.70;99.90
33594;DHT22;19920;52.242;20.940;2023-10-08T14:13:26;12.70;99.90
33594;DHT22;19920;52.242;20.940;2023-10-08T14:15:53;12.70;99.90
33594;DHT22;19920;52.242;20.940;2023-10-08T14:18:25;12.80;99.90
33594;DHT22;19920;52.242;20.940;2023-10-08T14:21:06;12.80;99.90
33594;DHT22;19920;52.242;20.940;2023-10-08T14:23:36;12.70;99.80
33594;DHT22;19920;52.242;20.940;2023-10-08T14:26:08;12.50;99.70
33594;DHT22;19920;52.242;20.940;2023-10-08T14:28:34;12.30;99.20
33594;DHT22;19920;52.242;20.940;2023-10-08T14:31:10;12.20;99.00
33594;DHT22;19920;52.242;20.940;2023-10-08T14:33:44;12.10;98.80
33594;DHT22;19920;52.242;20.940;2023-10-08T14:36:30;12.00;99.20
33594;DHT22;19920;52.242;20.940;2023-10-08T14:39:15;11.90;98.90
33594;DHT22;19920;52.242;20.940;2023-10-08T14:41:59;11.90;98.90
33594;DHT22;19920;52.242;20.940;2023-10-08T14:44:43;11.80;98.90
33594;DHT22;19920;52.242;20.940;2023-10-08T14:47:09;11.80;98.90
33594;DHT22;19920;52.242;20.940;2023-10-08T14:49:34;11.70;98.10
33594;DHT22;19920;52.242;20.940;2023-10-08T14:52:00;11.80;98.60
33594;DHT22;19920;52.242;20.940;2023-10-08T14:54:29;11.60;98.60
33594;DHT22;19920;52.242;20.940;2023-10-08T14:56:56;11.60;98.50
33594;DHT22;19920;52.242;20.940;2023-10-08T14:59:23;11.50;99.00
33594;DHT22;19920;52.242;20.940;2023-10-08T15:01:49;11.40;99.30
33594;DHT22;19920;52.242;20.940;2023-10-08T15:04:15;11.40;99.10
33594;DHT22;19920;52.242;20.940;2023-10-08T15:06:41;11.40;99.80
33594;DHT22;19920;52.242;20.940;2023-10-08T15:09:08;11.30;99.90
33594;DHT22;19920;52.242;20.940;2023-10-08T15:11:35;11.20;99.90
33594;DHT22;19920;52.242;20.940;2023-10-08T15:14:02;11.20;99.80
33594;DHT22;19920;52.242;20.940;2023-10-08T15:16:37;11.20;99.90
33594;DHT22;19920;52.242;20.940;2023-10-08T15:19:04;11.10;99.90
33594;DHT22;19920;52.242;20.940;2023-10-08T15:21:30;11.00;99.90
33594;DHT22;19920;52.242;20.940;2023-10-08T15:24:01;11.00;99.90
33594;DHT22;19920;52.242;20.940;2023-10-08T15:26:32;11.00;99.90
33594;DHT22;19920;52.242;20.940;2023-10-08T15:28:57;10.90;99.60
33594;DHT22;19920;52.242;20.940;2023-10-08T15:31:23;10.90;99.60
33594;DHT22;19920;52.242;20.940;2023-10-08T15:33:50;10.90;99.90
33594;DHT22;19920;52.242;20.940;2023-10-08T15:36:15;10.80;99.80
33594;DHT22;19920;52.242;20.940;2023-10-08T15:38:41;10.80;99.90
33594;DHT22;19920;52.242;20.940;2023-10-08T15:41:06;10.70;99.90
33594;DHT22;19920;52.242;20.940;2023-10-08T15:43:32;10.60;99.90
33594;DHT22;19920;52.242;20.940;2023-10-08T15:45:59;10.60;99.90